sensor_id;sensor_type;location;lat;lon;timestamp;P1;P2;P0
35654;PMS1003;21773;50.010;19.972;2022-09-30T00:00:39;28.20;26.20;21.00
35654;PMS1003;21773;50.010;19.972;2022-09-30T00:03:42;26.80;24.00;20.00
35654;PMS1003;21773;50.010;19.972;2022-09-30T00:06:47;29.60;26.60;22.00
35654;PMS1003;21773;50.010;19.972;2022-09-30T00:09:52;29.00;26.40;21.00
35654;PMS1003;21773;50.010;19.972;2022-09-30T00:12:56;29.20;27.00;22.00
35654;PMS1003;21773;50.010;19.972;2022-09-30T00:15:59;31.00;27.00;21.80
35654;PMS1003;21773;50.010;19.972;2022-09-30T00:19:03;29.00;27.00;22.00
35654;PMS1003;21773;50.010;19.972;2022-09-30T00:22:08;29.80;25.40;21.00
35654;PMS1003;21773;50.010;19.972;2022-09-30T00:25:12;29.00;26.50;22.00
35654;PMS1003;21773;50.010;19.972;2022-09-30T00:28:16;33.20;29.60;23.00
35654;PMS1003;21773;50.010;19.972;2022-09-30T00:31:20;27.60;25.60;20.60
35654;PMS1003;21773;50.010;19.972;2022-09-30T00:34:25;32.50;30.00;23.00
35654;PMS1003;21773;50.010;19.972;2022-09-30T00:37:29;28.00;24.67;20.33
35654;PMS1003;21773;50.010;19.972;2022-09-30T00:40:33;30.00;27.60;23.00
35654;PMS1003;21773;50.010;19.972;2022-09-30T00:43:40;30.60;28.00;22.00
35654;PMS1003;21773;50.010;19.972;2022-09-30T00:46:47;25.40;24.00;20.00
35654;PMS1003;21773;50.010;19.972;2022-09-30T00:49:50;26.75;24.75;20.75
35654;PMS1003;21773;50.010;19.972;2022-09-30T00:52:57;26.00;25.00;20.00
35654;PMS1003;21773;50.010;19.972;2022-09-30T00:56:07;26.60;25.20;20.80
35654;PMS1003;21773;50.010;19.972;2022-09-30T00:59:14;27.00;25.60;21.00
35654;PMS1003;21773;50.010;19.972;2022-09-30T01:02:21;25.80;25.40;20.40
35654;PMS1003;21773;50.010;19.972;2022-09-30T01:05:24;28.75;26.75;21.75
35654;PMS1003;21773;50.010;19.972;2022-09-30T01:08:30;26.80;26.00;21.00
35654;PMS1003;21773;50.010;19.972;2022-09-30T01:11:37;27.40;24.80;21.00
35654;PMS1003;21773;50.010;19.972;2022-09-30T01:14:40;27.50;25.50;20.50
35654;PMS1003;21773;50.010;19.972;2022-09-30T01:17:46;27.00;24.20;20.80
35654;PMS1003;21773;50.010;19.972;2022-09-30T01:21:07;26.00;24.60;20.00
35654;PMS1003;21773;50.010;19.972;2022-09-30T01:24:35;25.60;21.40;19.40
35654;PMS1003;21773;50.010;19.972;2022-09-30T01:27:46;26.00;23.67;20.00
35654;PMS1003;21773;50.010;19.972;2022-09-30T01:31:12;22.60;21.60;19.00
35654;PMS1003;21773;50.010;19.972;2022-09-30T01:34:35;27.40;23.00;18.00
35654;PMS1003;21773;50.010;19.972;2022-09-30T01:37:52;23.20;21.60;19.00
35654;PMS1003;21773;50.010;19.972;2022-09-30T01:41:06;26.00;24.00;20.00
35654;PMS1003;21773;50.010;19.972;2022-09-30T01:44:15;24.60;22.00;19.00
35654;PMS1003;21773;50.010;19.972;2022-09-30T01:47:29;24.50;21.50;18.50
35654;PMS1003;21773;50.010;19.972;2022-09-30T01:50:40;24.00;23.00;20.00
35654;PMS1003;21773;50.010;19.972;2022-09-30T01:53:49;22.80;21.00;18.00
35654;PMS1003;21773;50.010;19.972;2022-09-30T01:56:57;25.25;23.00;20.00
35654;PMS1003;21773;50.010;19.972;2022-09-30T02:00:06;23.40;21.40;18.40
35654;PMS1003;21773;50.010;19.972;2022-09-30T02:03:13;22.00;20.50;17.00
35654;PMS1003;21773;50.010;19.972;2022-09-30T02:06:21;20.00;17.80;15.40
35654;PMS1003;21773;50.010;19.972;2022-09-30T02:09:29;20.20;19.00;17.00
35654;PMS1003;21773;50.010;19.972;2022-09-30T02:12:40;22.00;20.00;17.00
35654;PMS1003;21773;50.010;19.972;2022-09-30T02:15:50;23.40;21.00;17.20
35654;PMS1003;21773;50.010;19.972;2022-09-30T02:18:59;24.60;22.60;19.00
35654;PMS1003;21773;50.010;19.972;2022-09-30T02:22:09;21.60;21.00;18.00
35654;PMS1003;21773;50.010;19.972;2022-09-30T02:25:17;23.60;22.00;20.00
35654;PMS1003;21773;50.010;19.972;2022-09-30T02:28:26;23.20;22.20;20.00
35654;PMS1003;21773;50.010;19.972;2022-09-30T02:31:31;25.00;21.50;20.00
35654;PMS1003;21773;50.010;19.972;2022-09-30T02:34:39;25.40;22.40;20.00
35654;PMS1003;21773;50.010;19.972;2022-09-30T02:37:47;23.00;21.50;19.00
35654;PMS1003;21773;50.010;19.972;2022-09-30T02:40:55;27.00;25.00;20.00
35654;PMS1003;21773;50.010;19.972;2022-09-30T02:44:02;26.00;22.00;19.00
35654;PMS1003;21773;50.010;19.972;2022-09-30T02:47:09;25.00;23.00;18.33
35654;PMS1003;21773;50.010;19.972;2022-09-30T02:50:19;22.75;22.00;19.00
35654;PMS1003;21773;50.010;19.972;2022-09-30T02:53:32;25.00;22.50;19.50
35654;PMS1003;21773;50.010;19.972;2022-09-30T02:56:41;26.00;23.00;19.40
35654;PMS1003;21773;50.010;19.972;2022-09-30T02:59:52;26.00;23.40;20.00
35654;PMS1003;21773;50.010;19.972;2022-09-30T03:02:56;22.50;21.50;19.00
35654;PMS1003;21773;50.010;19.972;2022-09-30T03:06:08;27.00;25.00;20.00
35654;PMS1003;21773;50.010;19.972;2022-09-30T03:09:12;22.80;21.00;18.80
35654;PMS1003;21773;50.010;19.972;2022-09-30T03:12:21;22.60;22.60;18.60
35654;PMS1003;21773;50.010;19.972;2022-09-30T03:15:45;23.80;22.00;18.00
35654;PMS1003;21773;50.010;19.972;2022-09-30T03:19:05;22.00;19.60;17.00
35654;PMS1003;21773;50.010;19.972;2022-09-30T03:22:33;24.00;22.00;20.00
35654;PMS1003;21773;50.010;19.972;2022-09-30T03:25:49;29.40;26.00;21.00
35654;PMS1003;21773;50.010;19.972;2022-09-30T03:29:08;25.00;21.50;19.00
35654;PMS1003;21773;50.010;19.972;2022-09-30T03:32:21;28.50;25.50;20.50
35654;PMS1003;21773;50.010;19.972;2022-09-30T03:35:41;27.60;25.00;21.00
35654;PMS1003;21773;50.010;19.972;2022-09-30T03:38:51;27.00;24.00;20.00
35654;PMS1003;21773;50.010;19.972;2022-09-30T03:42:04;23.00;21.00;18.60
35654;PMS1003;21773;50.010;19.972;2022-09-30T03:45:13;25.50;22.00;18.00
35654;PMS1003;21773;50.010;19.972;2022-09-30T03:48:22;22.00;21.00;18.00
35654;PMS1003;21773;50.010;19.972;2022-09-30T03:51:29;24.40;22.40;19.00
35654;PMS1003;21773;50.010;19.972;2022-09-30T03:54:36;24.40;22.40;19.60
35654;PMS1003;21773;50.010;19.972;2022-09-30T03:57:47;26.00;23.50;19.50
35654;PMS1003;21773;50.010;19.972;2022-09-30T04:00:52;26.00;24.00;20.00
35654;PMS1003;21773;50.010;19.972;2022-09-30T04:03:57;25.00;23.40;19.40
35654;PMS1003;21773;50.010;19.972;2022-09-30T04:07:01;24.40;22.40;18.60
35654;PMS1003;21773;50.010;19.972;2022-09-30T04:10:06;20.20;19.20;17.00
35654;PMS1003;21773;50.010;19.972;2022-09-30T04:13:10;27.40;25.60;20.40
35654;PMS1003;21773;50.010;19.972;2022-09-30T04:16:14;23.40;22.00;19.00
35654;PMS1003;21773;50.010;19.972;2022-09-30T04:19:17;18.25;16.25;13.50
35654;PMS1003;21773;50.010;19.972;2022-09-30T04:22:21;23.80;21.00;18.20
35654;PMS1003;21773;50.010;19.972;2022-09-30T04:25:28;24.60;22.00;17.60
35654;PMS1003;21773;50.010;19.972;2022-09-30T04:28:32;22.00;20.50;17.00
35654;PMS1003;21773;50.010;19.972;2022-09-30T04:31:35;23.00;22.00;19.00
35654;PMS1003;21773;50.010;19.972;2022-09-30T04:34:39;23.60;21.00;18.00
35654;PMS1003;21773;50.010;19.972;2022-09-30T04:37:42;22.25;21.00;18.25
35654;PMS1003;21773;50.010;19.972;2022-09-30T04:40:47;22.40;22.40;19.40
35654;PMS1003;21773;50.010;19.972;2022-09-30T04:43:51;25.40;23.00;19.40
35654;PMS1003;21773;50.010;19.972;2022-09-30T04:46:56;22.00;20.00;17.00
35654;PMS1003;21773;50.010;19.972;2022-09-30T04:50:01;22.75;20.75;18.00
35654;PMS1003;21773;50.010;19.972;2022-09-30T04:53:04;26.20;24.20;20.20
35654;PMS1003;21773;50.010;19.972;2022-09-30T04:56:09;25.00;23.00;19.00
35654;PMS1003;21773;50.010;19.972;2022-09-30T04:59:13;21.00;19.00;16.80
35654;PMS1003;21773;50.010;19.972;2022-09-30T05:02:16;23.75;20.00;17.00
35654;PMS1003;21773;50.010;19.972;2022-09-30T05:05:19;24.00;23.00;20.00
35654;PMS1003;21773;50.010;19.972;2022-09-30T05:08:23;22.60;21.00;18.00
35654;PMS1003;21773;50.010;19.972;2022-09-30T05:11:27;21.60;20.00;17.60
35654;PMS1003;21773;50.010;19.972;2022-09-30T05:14:31;26.00;21.00;17.60
35654;PMS1003;21773;50.010;19.972;2022-09-30T05:17:35;21.80;21.00;17.00
35654;PMS1003;21773;50.010;19.972;2022-09-30T05:20:38;28.00;24.00;19.00
35654;PMS1003;21773;50.010;19.972;2022-09-30T05:23:42;22.00;20.60;17.60
35654;PMS1003;21773;50.010;19.972;2022-09-30T05:26:47;24.40;20.00;18.00
35654;PMS1003;21773;50.010;19.972;2022-09-30T05:29:50;23.00;21.40;18.00
35654;PMS1003;21773;50.010;19.972;2022-09-30T05:32:54;27.00;23.20;19.80
35654;PMS1003;21773;50.010;19.972;2022-09-30T05:35:58;30.00;25.00;20.00
35654;PMS1003;21773;50.010;19.972;2022-09-30T05:39:03;26.50;23.75;18.00
35654;PMS1003;21773;50.010;19.972;2022-09-30T05:42:08;27.00;23.40;20.00
35654;PMS1003;21773;50.010;19.972;2022-09-30T05:45:15;25.40;21.00;18.60
35654;PMS1003;21773;50.010;19.972;2022-09-30T05:48:18;23.50;21.50;18.75
35654;PMS1003;21773;50.010;19.972;2022-09-30T05:51:22;25.20;23.00;19.00
35654;PMS1003;21773;50.010;19.972;2022-09-30T05:54:25;25.50;24.50;21.00
35654;PMS1003;21773;50.010;19.972;2022-09-30T05:57:30;29.00;26.33;22.00
35654;PMS1003;21773;50.010;19.972;2022-09-30T06:00:33;27.80;23.00;20.00
35654;PMS1003;21773;50.010;19.972;2022-09-30T06:03:36;31.60;27.60;21.60
35654;PMS1003;21773;50.010;19.972;2022-09-30T06:06:40;26.00;24.00;20.00
35654;PMS1003;21773;50.010;19.972;2022-09-30T06:09:43;29.60;26.40;21.00
35654;PMS1003;21773;50.010;19.972;2022-09-30T06:12:49;29.60;26.40;20.40
35654;PMS1003;21773;50.010;19.972;2022-09-30T06:15:53;27.60;24.00;19.00
35654;PMS1003;21773;50.010;19.972;2022-09-30T06:18:58;32.80;27.60;21.00
35654;PMS1003;21773;50.010;19.972;2022-09-30T06:22:02;26.00;24.00;20.00
35654;PMS1003;21773;50.010;19.972;2022-09-30T06:25:05;30.40;27.00;21.00
35654;PMS1003;21773;50.010;19.972;2022-09-30T06:28:10;30.00;25.40;20.00
35654;PMS1003;21773;50.010;19.972;2022-09-30T06:31:14;30.00;26.00;20.00
35654;PMS1003;21773;50.010;19.972;2022-09-30T06:34:17;27.00;25.50;20.00
35654;PMS1003;21773;50.010;19.972;2022-09-30T06:37:21;28.80;24.40;20.00
35654;PMS1003;21773;50.010;19.972;2022-09-30T06:40:24;30.00;26.00;20.00
35654;PMS1003;21773;50.010;19.972;2022-09-30T06:43:29;26.33;24.33;18.33
35654;PMS1003;21773;50.010;19.972;2022-09-30T06:46:48;24.00;21.00;17.00
35654;PMS1003;21773;50.010;19.972;2022-09-30T06:49:54;23.00;21.00;18.00
35654;PMS1003;21773;50.010;19.972;2022-09-30T06:53:00;27.25;23.00;20.00
35654;PMS1003;21773;50.010;19.972;2022-09-30T06:56:07;27.40;22.60;18.40
35654;PMS1003;21773;50.010;19.972;2022-09-30T06:59:12;26.80;23.40;19.60
35654;PMS1003;21773;50.010;19.972;2022-09-30T07:02:16;27.00;22.75;19.00
35654;PMS1003;21773;50.010;19.972;2022-09-30T07:05:20;25.33;23.67;18.67
35654;PMS1003;21773;50.010;19.972;2022-09-30T07:08:23;24.00;21.40;17.00
35654;PMS1003;21773;50.010;19.972;2022-09-30T07:11:30;26.40;25.60;20.00
35654;PMS1003;21773;50.010;19.972;2022-09-30T07:14:34;23.60;20.40;18.00
35654;PMS1003;21773;50.010;19.972;2022-09-30T07:17:38;25.00;23.40;18.80
35654;PMS1003;21773;50.010;19.972;2022-09-30T07:20:46;25.50;22.00;18.00
35654;PMS1003;21773;50.010;19.972;2022-09-30T07:23:50;23.50;23.25;19.00
35654;PMS1003;21773;50.010;19.972;2022-09-30T07:26:55;22.80;21.80;16.40
35654;PMS1003;21773;50.010;19.972;2022-09-30T07:30:00;23.00;19.60;16.60
35654;PMS1003;21773;50.010;19.972;2022-09-30T07:33:16;23.40;21.40;17.00
35654;PMS1003;21773;50.010;19.972;2022-09-30T07:36:20;22.20;19.80;16.40
35654;PMS1003;21773;50.010;19.972;2022-09-30T07:39:34;24.60;23.00;19.00
35654;PMS1003;21773;50.010;19.972;2022-09-30T07:42:38;28.00;23.00;19.40
35654;PMS1003;21773;50.010;19.972;2022-09-30T07:45:48;26.60;23.00;19.00
35654;PMS1003;21773;50.010;19.972;2022-09-30T07:48:53;20.00;19.00;15.00
35654;PMS1003;21773;50.010;19.972;2022-09-30T07:52:00;23.50;22.00;18.00
35654;PMS1003;21773;50.010;19.972;2022-09-30T07:55:04;22.60;20.60;16.60
35654;PMS1003;21773;50.010;19.972;2022-09-30T07:58:08;26.00;20.00;16.00
35654;PMS1003;21773;50.010;19.972;2022-09-30T08:01:13;27.00;23.00;18.00
35654;PMS1003;21773;50.010;19.972;2022-09-30T08:04:17;24.00;21.00;17.00
35654;PMS1003;21773;50.010;19.972;2022-09-30T08:07:22;28.60;23.60;18.60
35654;PMS1003;21773;50.010;19.972;2022-09-30T08:10:25;24.60;22.00;18.00
35654;PMS1003;21773;50.010;19.972;2022-09-30T08:13:28;31.20;23.00;18.00
35654;PMS1003;21773;50.010;19.972;2022-09-30T08:16:33;23.00;19.25;16.25
35654;PMS1003;21773;50.010;19.972;2022-09-30T08:19:36;25.00;21.40;17.40
35654;PMS1003;21773;50.010;19.972;2022-09-30T08:22:45;26.00;23.40;18.40
35654;PMS1003;21773;50.010;19.972;2022-09-30T08:25:48;23.00;20.00;16.25
35654;PMS1003;21773;50.010;19.972;2022-09-30T08:28:51;24.20;21.00;17.60
35654;PMS1003;21773;50.010;19.972;2022-09-30T08:31:56;31.60;23.60;18.00
35654;PMS1003;21773;50.010;19.972;2022-09-30T08:34:59;25.20;22.00;17.80
35654;PMS1003;21773;50.010;19.972;2022-09-30T08:38:03;28.20;25.00;20.00
35654;PMS1003;21773;50.010;19.972;2022-09-30T08:41:10;26.00;20.00;16.00
35654;PMS1003;21773;50.010;19.972;2022-09-30T08:44:26;23.60;22.00;19.00
35654;PMS1003;21773;50.010;19.972;2022-09-30T08:47:45;24.40;21.40;17.00
35654;PMS1003;21773;50.010;19.972;2022-09-30T08:51:00;25.20;23.20;18.60
35654;PMS1003;21773;50.010;19.972;2022-09-30T08:54:12;22.80;22.00;16.80
35654;PMS1003;21773;50.010;19.972;2022-09-30T08:57:18;21.60;19.20;16.20
35654;PMS1003;21773;50.010;19.972;2022-09-30T09:00:23;21.00;19.60;15.20
35654;PMS1003;21773;50.010;19.972;2022-09-30T09:03:28;23.60;21.00;16.60
35654;PMS1003;21773;50.010;19.972;2022-09-30T09:06:35;24.40;21.00;16.00
35654;PMS1003;21773;50.010;19.972;2022-09-30T09:09:55;20.00;19.00;15.40
35654;PMS1003;21773;50.010;19.972;2022-09-30T09:13:08;22.60;20.40;16.40
35654;PMS1003;21773;50.010;19.972;2022-09-30T09:16:21;22.80;19.20;16.00
35654;PMS1003;21773;50.010;19.972;2022-09-30T09:19:34;21.00;20.00;17.00
35654;PMS1003;21773;50.010;19.972;2022-09-30T09:22:40;21.40;20.60;17.00
35654;PMS1003;21773;50.010;19.972;2022-09-30T09:25:46;19.20;17.80;13.80
35654;PMS1003;21773;50.010;19.972;2022-09-30T09:28:59;21.00;19.00;15.00
35654;PMS1003;21773;50.010;19.972;2022-09-30T09:32:12;21.40;19.00;16.00
35654;PMS1003;21773;50.010;19.972;2022-09-30T09:35:24;22.40;19.00;16.00
35654;PMS1003;21773;50.010;19.972;2022-09-30T09:38:37;20.20;17.80;14.40
35654;PMS1003;21773;50.010;19.972;2022-09-30T09:41:57;22.00;18.60;14.60
35654;PMS1003;21773;50.010;19.972;2022-09-30T09:45:10;21.00;17.20;14.00
35654;PMS1003;21773;50.010;19.972;2022-09-30T09:48:24;21.80;18.00;14.20
35654;PMS1003;21773;50.010;19.972;2022-09-30T09:51:30;20.40;19.00;15.00
35654;PMS1003;21773;50.010;19.972;2022-09-30T09:54:39;21.00;19.00;15.00
35654;PMS1003;21773;50.010;19.972;2022-09-30T09:57:44;18.00;16.00;14.00
35654;PMS1003;21773;50.010;19.972;2022-09-30T10:00:47;15.75;14.75;11.00
35654;PMS1003;21773;50.010;19.972;2022-09-30T10:04:20;19.00;16.00;14.00
35654;PMS1003;21773;50.010;19.972;2022-09-30T10:07:29;19.00;17.00;14.00
35654;PMS1003;21773;50.010;19.972;2022-09-30T10:10:37;17.80;14.80;12.80
35654;PMS1003;21773;50.010;19.972;2022-09-30T10:13:49;20.00;17.50;14.00
35654;PMS1003;21773;50.010;19.972;2022-09-30T10:16:56;23.80;20.00;15.20
35654;PMS1003;21773;50.010;19.972;2022-09-30T10:20:02;22.67;17.67;15.00
35654;PMS1003;21773;50.010;19.972;2022-09-30T10:23:17;22.00;20.00;15.60
35654;PMS1003;21773;50.010;19.972;2022-09-30T10:26:23;16.75;14.75;13.00
35654;PMS1003;21773;50.010;19.972;2022-09-30T10:29:29;19.40;16.40;13.40
35654;PMS1003;21773;50.010;19.972;2022-09-30T10:32:34;21.00;18.25;14.75
35654;PMS1003;21773;50.010;19.972;2022-09-30T10:35:46;20.00;17.50;14.00
35654;PMS1003;21773;50.010;19.972;2022-09-30T10:38:57;18.00;15.00;12.00
35654;PMS1003;21773;50.010;19.972;2022-09-30T10:42:08;13.00;13.00;12.00
35654;PMS1003;21773;50.010;19.972;2022-09-30T10:45:27;17.80;16.60;14.00
35654;PMS1003;21773;50.010;19.972;2022-09-30T10:48:37;16.40;13.40;12.40
35654;PMS1003;21773;50.010;19.972;2022-09-30T10:51:44;14.00;12.20;10.20
35654;PMS1003;21773;50.010;19.972;2022-09-30T10:54:50;14.00;13.00;11.00
35654;PMS1003;21773;50.010;19.972;2022-09-30T10:57:55;16.80;15.40;11.40
35654;PMS1003;21773;50.010;19.972;2022-09-30T11:01:08;15.75;14.00;13.00
35654;PMS1003;21773;50.010;19.972;2022-09-30T11:04:21;14.00;12.40;9.00
35654;PMS1003;21773;50.010;19.972;2022-09-30T11:07:30;15.00;14.00;12.00
35654;PMS1003;21773;50.010;19.972;2022-09-30T11:10:44;14.25;12.75;10.25
35654;PMS1003;21773;50.010;19.972;2022-09-30T11:13:53;14.25;12.00;10.25
35654;PMS1003;21773;50.010;19.972;2022-09-30T11:17:01;13.00;12.20;9.20
35654;PMS1003;21773;50.010;19.972;2022-09-30T11:20:14;14.00;13.60;12.00
35654;PMS1003;21773;50.010;19.972;2022-09-30T11:23:24;11.25;10.25;8.25
35654;PMS1003;21773;50.010;19.972;2022-09-30T11:26:37;10.75;9.00;8.00
35654;PMS1003;21773;50.010;19.972;2022-09-30T11:29:52;14.00;13.00;11.00
35654;PMS1003;21773;50.010;19.972;2022-09-30T11:33:11;12.00;10.80;8.20
35654;PMS1003;21773;50.010;19.972;2022-09-30T11:36:29;15.00;13.00;11.00
35654;PMS1003;21773;50.010;19.972;2022-09-30T11:43:30;16.00;14.40;11.40
35654;PMS1003;21773;50.010;19.972;2022-09-30T11:46:46;16.00;14.00;11.25
35654;PMS1003;21773;50.010;19.972;2022-09-30T11:50:06;13.60;12.60;10.80
35654;PMS1003;21773;50.010;19.972;2022-09-30T11:53:26;15.40;14.00;11.40
35654;PMS1003;21773;50.010;19.972;2022-09-30T11:56:45;14.00;13.60;10.60
35654;PMS1003;21773;50.010;19.972;2022-09-30T11:59:57;18.00;16.00;14.00
35654;PMS1003;21773;50.010;19.972;2022-09-30T12:03:12;13.00;12.00;10.60
35654;PMS1003;21773;50.010;19.972;2022-09-30T12:06:23;11.00;10.00;8.00
35654;PMS1003;21773;50.010;19.972;2022-09-30T12:09:34;14.25;12.25;10.25
35654;PMS1003;21773;50.010;19.972;2022-09-30T12:12:42;15.00;14.00;11.00
35654;PMS1003;21773;50.010;19.972;2022-09-30T12:15:49;13.20;13.20;12.20
35654;PMS1003;21773;50.010;19.972;2022-09-30T12:18:56;14.00;12.00;10.00
35654;PMS1003;21773;50.010;19.972;2022-09-30T12:22:10;15.00;14.00;11.00
35654;PMS1003;21773;50.010;19.972;2022-09-30T12:25:17;16.00;14.20;12.00
35654;PMS1003;21773;50.010;19.972;2022-09-30T12:28:27;14.20;13.00;11.00
35654;PMS1003;21773;50.010;19.972;2022-09-30T12:32:04;13.50;12.00;9.75
35654;PMS1003;21773;50.010;19.972;2022-09-30T12:35:27;13.00;12.60;10.00
35654;PMS1003;21773;50.010;19.972;2022-09-30T12:45:53;15.40;14.00;12.00
35654;PMS1003;21773;50.010;19.972;2022-09-30T12:49:06;16.00;15.00;13.00
35654;PMS1003;21773;50.010;19.972;2022-09-30T12:52:17;14.60;13.60;11.00
35654;PMS1003;21773;50.010;19.972;2022-09-30T12:55:24;13.00;12.00;10.25
35654;PMS1003;21773;50.010;19.972;2022-09-30T12:58:33;14.60;13.00;11.00
35654;PMS1003;21773;50.010;19.972;2022-09-30T13:01:39;13.00;11.40;10.00
35654;PMS1003;21773;50.010;19.972;2022-09-30T13:04:45;13.00;12.00;10.00
35654;PMS1003;21773;50.010;19.972;2022-09-30T13:11:30;13.00;11.75;10.00
35654;PMS1003;21773;50.010;19.972;2022-09-30T13:14:38;12.00;11.00;11.00
35654;PMS1003;21773;50.010;19.972;2022-09-30T13:17:44;11.40;11.00;9.00
35654;PMS1003;21773;50.010;19.972;2022-09-30T13:20:50;12.80;12.20;11.00
35654;PMS1003;21773;50.010;19.972;2022-09-30T13:23:57;13.60;12.60;10.00
35654;PMS1003;21773;50.010;19.972;2022-09-30T13:27:11;12.50;11.50;9.50
35654;PMS1003;21773;50.010;19.972;2022-09-30T13:33:42;10.00;9.20;8.00
35654;PMS1003;21773;50.010;19.972;2022-09-30T13:36:57;11.00;10.00;9.00
35654;PMS1003;21773;50.010;19.972;2022-09-30T13:40:01;12.40;11.00;10.00
35654;PMS1003;21773;50.010;19.972;2022-09-30T13:43:08;13.60;13.00;12.00
35654;PMS1003;21773;50.010;19.972;2022-09-30T13:46:21;9.50;9.00;8.00
35654;PMS1003;21773;50.010;19.972;2022-09-30T13:49:34;36.75;32.75;25.75
35654;PMS1003;21773;50.010;19.972;2022-09-30T13:52:47;9.00;8.00;7.00
35654;PMS1003;21773;50.010;19.972;2022-09-30T13:55:55;10.00;10.00;8.00
35654;PMS1003;21773;50.010;19.972;2022-09-30T13:59:10;8.50;8.00;7.50
35654;PMS1003;21773;50.010;19.972;2022-09-30T14:02:29;8.00;7.00;6.60
35654;PMS1003;21773;50.010;19.972;2022-09-30T14:05:56;8.20;6.80;5.00
35654;PMS1003;21773;50.010;19.972;2022-09-30T14:09:14;7.50;7.00;6.50
35654;PMS1003;21773;50.010;19.972;2022-09-30T14:12:36;6.00;6.00;5.00
35654;PMS1003;21773;50.010;19.972;2022-09-30T14:15:55;7.00;7.00;6.00
35654;PMS1003;21773;50.010;19.972;2022-09-30T14:19:28;6.40;6.00;5.00
35654;PMS1003;21773;50.010;19.972;2022-09-30T14:22:46;8.00;7.00;6.00
35654;PMS1003;21773;50.010;19.972;2022-09-30T14:25:53;6.80;6.20;5.80
35654;PMS1003;21773;50.010;19.972;2022-09-30T14:29:03;8.00;8.00;7.00
35654;PMS1003;21773;50.010;19.972;2022-09-30T14:32:18;8.40;7.40;7.00
35654;PMS1003;21773;50.010;19.972;2022-09-30T14:39:30;7.50;7.00;6.00
35654;PMS1003;21773;50.010;19.972;2022-09-30T14:42:36;9.00;8.00;6.40
35654;PMS1003;21773;50.010;19.972;2022-09-30T14:45:43;6.40;6.40;6.00
35654;PMS1003;21773;50.010;19.972;2022-09-30T14:48:48;6.00;6.00;6.00
35654;PMS1003;21773;50.010;19.972;2022-09-30T14:51:53;7.00;7.00;6.00
35654;PMS1003;21773;50.010;19.972;2022-09-30T14:54:58;7.00;6.60;6.00
35654;PMS1003;21773;50.010;19.972;2022-09-30T14:58:19;8.00;7.00;6.00
35654;PMS1003;21773;50.010;19.972;2022-09-30T15:01:29;7.00;6.00;6.00
35654;PMS1003;21773;50.010;19.972;2022-09-30T15:04:37;8.00;7.00;6.00
35654;PMS1003;21773;50.010;19.972;2022-09-30T15:07:47;6.00;6.00;5.00
35654;PMS1003;21773;50.010;19.972;2022-09-30T15:10:51;6.00;6.00;6.00
35654;PMS1003;21773;50.010;19.972;2022-09-30T15:13:59;8.00;7.20;6.20
35654;PMS1003;21773;50.010;19.972;2022-09-30T15:17:15;6.00;6.00;5.67
35654;PMS1003;21773;50.010;19.972;2022-09-30T15:20:24;7.00;6.60;5.60
35654;PMS1003;21773;50.010;19.972;2022-09-30T15:23:32;6.00;6.00;5.00
35654;PMS1003;21773;50.010;19.972;2022-09-30T15:26:38;8.00;7.25;6.25
35654;PMS1003;21773;50.010;19.972;2022-09-30T15:29:53;7.50;7.00;7.00
35654;PMS1003;21773;50.010;19.972;2022-09-30T15:32:58;7.40;7.40;6.00
35654;PMS1003;21773;50.010;19.972;2022-09-30T15:36:04;6.40;6.40;5.40
35654;PMS1003;21773;50.010;19.972;2022-09-30T15:39:17;8.20;8.20;7.20
35654;PMS1003;21773;50.010;19.972;2022-09-30T15:42:28;6.00;6.00;5.60
35654;PMS1003;21773;50.010;19.972;2022-09-30T15:45:38;6.67;6.67;5.00
35654;PMS1003;21773;50.010;19.972;2022-09-30T15:48:44;6.00;6.00;5.60
35654;PMS1003;21773;50.010;19.972;2022-09-30T15:51:48;7.00;7.00;6.00
35654;PMS1003;21773;50.010;19.972;2022-09-30T15:54:52;7.20;7.00;7.00
35654;PMS1003;21773;50.010;19.972;2022-09-30T15:57:56;8.00;7.00;6.00
35654;PMS1003;21773;50.010;19.972;2022-09-30T16:01:10;9.00;9.00;8.00
35654;PMS1003;21773;50.010;19.972;2022-09-30T16:04:21;9.40;9.00;8.00
35654;PMS1003;21773;50.010;19.972;2022-09-30T16:07:27;9.00;9.00;9.00
35654;PMS1003;21773;50.010;19.972;2022-09-30T16:10:32;9.75;9.00;8.00
35654;PMS1003;21773;50.010;19.972;2022-09-30T16:13:37;9.00;8.00;8.00
35654;PMS1003;21773;50.010;19.972;2022-09-30T16:16:48;9.40;9.00;8.60
35654;PMS1003;21773;50.010;19.972;2022-09-30T16:19:58;9.40;9.40;8.40
35654;PMS1003;21773;50.010;19.972;2022-09-30T16:23:03;11.00;10.40;10.00
35654;PMS1003;21773;50.010;19.972;2022-09-30T16:26:19;11.60;11.60;10.40
35654;PMS1003;21773;50.010;19.972;2022-09-30T16:29:29;9.00;9.00;8.00
35654;PMS1003;21773;50.010;19.972;2022-09-30T16:32:36;10.00;9.60;8.00
35654;PMS1003;21773;50.010;19.972;2022-09-30T16:35:43;9.00;8.00;7.00
35654;PMS1003;21773;50.010;19.972;2022-09-30T16:38:49;12.80;11.00;10.00
35654;PMS1003;21773;50.010;19.972;2022-09-30T16:41:52;11.00;10.00;8.00
35654;PMS1003;21773;50.010;19.972;2022-09-30T16:44:56;10.40;9.00;8.00
35654;PMS1003;21773;50.010;19.972;2022-09-30T16:48:08;11.00;11.00;8.60
35654;PMS1003;21773;50.010;19.972;2022-09-30T16:51:17;11.00;10.00;8.50
35654;PMS1003;21773;50.010;19.972;2022-09-30T16:54:21;10.60;9.00;8.00
35654;PMS1003;21773;50.010;19.972;2022-09-30T16:57:25;10.40;9.00;8.00
35654;PMS1003;21773;50.010;19.972;2022-09-30T17:00:29;14.25;12.25;11.75
35654;PMS1003;21773;50.010;19.972;2022-09-30T17:03:34;13.40;12.00;11.00
35654;PMS1003;21773;50.010;19.972;2022-09-30T17:06:37;14.50;13.00;10.50
35654;PMS1003;21773;50.010;19.972;2022-09-30T17:09:42;17.50;16.50;13.50
35654;PMS1003;21773;50.010;19.972;2022-09-30T17:12:46;23.80;21.00;17.80
35654;PMS1003;21773;50.010;19.972;2022-09-30T17:15:52;16.00;14.00;12.00
35654;PMS1003;21773;50.010;19.972;2022-09-30T17:18:57;25.60;25.00;20.00
35654;PMS1003;21773;50.010;19.972;2022-09-30T17:22:02;18.00;16.00;14.00
35654;PMS1003;21773;50.010;19.972;2022-09-30T17:25:07;16.60;14.60;12.60
35654;PMS1003;21773;50.010;19.972;2022-09-30T17:28:12;14.00;13.60;11.60
35654;PMS1003;21773;50.010;19.972;2022-09-30T17:31:15;18.00;17.00;14.50
35654;PMS1003;21773;50.010;19.972;2022-09-30T17:34:21;11.00;11.00;9.50
35654;PMS1003;21773;50.010;19.972;2022-09-30T17:37:28;12.00;11.25;10.00
35654;PMS1003;21773;50.010;19.972;2022-09-30T17:40:31;13.00;12.00;10.80
35654;PMS1003;21773;50.010;19.972;2022-09-30T17:43:53;17.00;16.00;14.00
35654;PMS1003;21773;50.010;19.972;2022-09-30T17:46:58;15.60;13.60;11.60
35654;PMS1003;21773;50.010;19.972;2022-09-30T17:50:04;12.75;12.00;10.50